createdAt,value
2023-07-24T00:00:00.393Z,78.27
2023-07-24T00:00:59.658Z,78.06
2023-07-24T00:01:59.631Z,77.92
2023-07-24T00:02:59.672Z,78.33
2023-07-24T00:03:59.659Z,77.72
2023-07-24T00:04:59.587Z,77.72
2023-07-24T00:05:59.591Z,77.79
2023-07-24T00:06:59.586Z,77.09
2023-07-24T00:07:59.568Z,77.99
2023-07-24T00:08:59.558Z,76.78
2023-07-24T00:09:59.547Z,74.98
2023-07-24T00:10:59.528Z,75.04
2023-07-24T00:11:59.519Z,74.24
2023-07-24T00:12:59.506Z,77.11
2023-07-24T00:13:59.494Z,79.92
2023-07-24T00:14:59.475Z,79.72
2023-07-24T00:15:59.487Z,78.22
2023-07-24T00:16:59.496Z,80.42
2023-07-24T00:17:59.480Z,82.03
2023-07-24T00:18:59.456Z,78.52
2023-07-24T00:19:59.442Z,80.52
2023-07-24T00:20:59.442Z,80.46
2023-07-24T00:21:59.424Z,79.55
2023-07-24T00:22:59.394Z,79.72
2023-07-24T00:23:59.396Z,76.91
2023-07-24T00:24:59.375Z,76.51
2023-07-24T00:25:59.385Z,78.31
2023-07-24T00:26:59.351Z,78.92
2023-07-24T00:27:59.349Z,79.62
2023-07-24T00:28:59.325Z,82.87
2023-07-24T00:29:59.322Z,81.56
2023-07-24T00:30:59.342Z,81.96
2023-07-24T00:31:59.318Z,79.36
2023-07-24T00:32:59.359Z,79.16
2023-07-24T00:33:59.298Z,79.16
2023-07-24T00:34:59.269Z,79.36
2023-07-24T00:36:00.077Z,81.06
2023-07-24T00:36:59.267Z,80.10
2023-07-24T00:37:59.244Z,80.10
2023-07-24T00:38:59.252Z,80.19
2023-07-24T00:39:59.217Z,80.10
2023-07-24T00:40:59.195Z,82.00
2023-07-24T00:41:59.305Z,83.01
2023-07-24T00:42:59.195Z,83.61
2023-07-24T00:43:59.181Z,83.04
2023-07-24T00:44:59.162Z,81.64
2023-07-24T00:45:59.150Z,81.84
2023-07-24T00:46:59.246Z,82.04
2023-07-24T00:47:59.156Z,82.34
2023-07-24T00:48:59.138Z,82.34
2023-07-24T00:49:59.115Z,82.14
2023-07-24T00:50:59.109Z,82.14
2023-07-24T00:51:59.102Z,82.24
2023-07-24T00:52:59.086Z,82.54
2023-07-24T00:53:59.060Z,82.64
2023-07-24T00:54:59.057Z,82.34
2023-07-24T00:55:59.051Z,83.81
2023-07-24T00:56:59.036Z,83.15
2023-07-24T00:57:59.040Z,82.95
2023-07-24T00:58:59.024Z,84.05
2023-07-24T00:59:59.007Z,83.25
2023-07-24T01:00:59.013Z,81.64
2023-07-24T01:01:58.984Z,81.40
2023-07-24T01:02:59.049Z,83.31
2023-07-24T01:03:58.961Z,83.61
2023-07-24T01:04:59.761Z,83.11
2023-07-24T01:05:58.941Z,82.60
2023-07-24T01:06:58.920Z,82.10
2023-07-24T01:07:58.927Z,82.40
2023-07-24T01:08:59.470Z,83.51
2023-07-24T01:09:58.903Z,83.61
2023-07-24T01:10:58.883Z,81.40
2023-07-24T01:11:58.876Z,83.81
2023-07-24T01:12:58.862Z,82.40
2023-07-24T01:13:59.658Z,82.00
2023-07-24T01:14:58.873Z,83.31
2023-07-24T01:15:58.848Z,84.21
2023-07-24T01:16:58.859Z,82.95
2023-07-24T01:17:58.863Z,80.50
2023-07-24T01:18:58.794Z,78.96
2023-07-24T01:19:58.792Z,78.72
2023-07-24T01:20:58.795Z,78.38
2023-07-24T01:21:58.769Z,78.08
2023-07-24T01:22:58.754Z,78.68
2023-07-24T01:23:58.749Z,78.78
2023-07-24T01:24:58.727Z,79.58
2023-07-24T01:25:59.188Z,78.58
2023-07-24T01:26:58.713Z,78.61
2023-07-24T01:27:58.718Z,79.72
2023-07-24T01:28:58.694Z,78.81
2023-07-24T01:29:58.676Z,79.72
2023-07-24T01:30:58.784Z,79.42
2023-07-24T01:31:58.693Z,79.92
2023-07-24T01:32:58.709Z,80.02
2023-07-24T01:33:58.634Z,80.02
2023-07-24T01:34:58.629Z,80.12
2023-07-24T01:35:58.629Z,81.02
2023-07-24T01:36:58.623Z,80.92
2023-07-24T01:37:58.599Z,80.86
2023-07-24T01:38:58.579Z,80.36
2023-07-24T01:39:58.579Z,80.76
2023-07-24T01:40:58.569Z,81.46
2023-07-24T01:41:58.552Z,81.26
2023-07-24T01:42:58.533Z,80.86
2023-07-24T01:43:58.540Z,80.56
2023-07-24T01:44:58.510Z,80.66
2023-07-24T01:45:58.539Z,80.86
2023-07-24T01:46:58.503Z,81.26
2023-07-24T01:47:58.540Z,81.67
2023-07-24T01:48:58.480Z,81.96
2023-07-24T01:49:58.473Z,81.96
2023-07-24T01:50:58.457Z,82.06
2023-07-24T01:51:58.446Z,82.06
2023-07-24T01:52:58.444Z,82.76
2023-07-24T01:53:58.429Z,82.31
2023-07-24T01:54:58.414Z,83.11
2023-07-24T01:55:58.416Z,83.21
2023-07-24T01:56:58.403Z,83.41
2023-07-24T01:57:58.392Z,84.01
2023-07-24T01:58:58.371Z,83.81
2023-07-24T01:59:58.369Z,84.11
2023-07-24T02:00:58.344Z,82.81
2023-07-24T02:01:58.438Z,83.04
2023-07-24T02:02:58.413Z,84.35
2023-07-24T02:03:58.329Z,84.45
2023-07-24T02:04:58.308Z,84.65
2023-07-24T02:05:58.293Z,84.65
2023-07-24T02:06:58.280Z,84.75
2023-07-24T02:07:58.278Z,85.30
2023-07-24T02:08:58.261Z,86.30
2023-07-24T02:09:59.057Z,86.30
2023-07-24T02:10:58.241Z,86.00
2023-07-24T02:11:58.228Z,86.44
2023-07-24T02:12:58.218Z,87.15
2023-07-24T02:13:58.988Z,87.55
2023-07-24T02:14:58.198Z,87.75
2023-07-24T02:15:58.218Z,87.55
2023-07-24T02:16:58.177Z,87.04
2023-07-24T02:17:58.194Z,87.89
2023-07-24T02:18:58.152Z,88.29
2023-07-24T02:19:58.139Z,88.39
2023-07-24T02:20:58.127Z,87.89
2023-07-24T02:21:58.126Z,87.99
2023-07-24T02:22:58.182Z,87.89
2023-07-24T02:23:58.096Z,88.43
2023-07-24T02:24:58.091Z,88.74
2023-07-24T02:25:58.072Z,89.24
2023-07-24T02:26:58.057Z,89.14
2023-07-24T02:27:58.057Z,88.34
2023-07-24T02:28:58.038Z,88.34
2023-07-24T02:29:58.054Z,88.23
2023-07-24T02:30:58.029Z,87.87
2023-07-24T02:31:58.009Z,87.87
2023-07-24T02:32:58.078Z,87.47
2023-07-24T02:33:57.984Z,87.87
2023-07-24T02:34:57.976Z,88.68
2023-07-24T02:35:57.969Z,88.38
2023-07-24T02:36:57.973Z,88.58
2023-07-24T02:37:57.933Z,88.78
2023-07-24T02:38:57.934Z,87.98
2023-07-24T02:39:57.915Z,88.68
2023-07-24T02:40:57.917Z,88.92
2023-07-24T02:41:57.901Z,88.82
2023-07-24T02:42:57.896Z,89.63
2023-07-24T02:43:57.878Z,89.63
2023-07-24T02:44:57.876Z,89.93
2023-07-24T02:45:57.900Z,90.03
2023-07-24T02:46:57.853Z,88.96
2023-07-24T02:47:57.858Z,88.46
2023-07-24T02:48:57.816Z,88.16
2023-07-24T02:49:57.813Z,88.16
2023-07-24T02:50:57.804Z,87.55
2023-07-24T02:51:57.790Z,88.06
2023-07-24T02:52:57.787Z,89.47
2023-07-24T02:53:57.767Z,88.76
2023-07-24T02:54:57.757Z,88.06
2023-07-24T02:55:57.750Z,87.35
2023-07-24T02:56:57.746Z,87.05
2023-07-24T02:57:57.733Z,87.15
2023-07-24T02:58:57.731Z,86.55
2023-07-24T02:59:57.708Z,87.76
2023-07-24T03:00:57.725Z,88.46
2023-07-24T03:01:57.679Z,86.24
2023-07-24T03:02:57.781Z,86.15
2023-07-24T03:03:57.662Z,86.15
2023-07-24T03:04:57.651Z,85.44
2023-07-24T03:05:57.656Z,85.44
2023-07-24T03:06:57.624Z,85.44
2023-07-24T03:07:57.613Z,85.44
2023-07-24T03:08:57.618Z,83.72
2023-07-24T03:09:58.438Z,84.23
2023-07-24T03:10:57.586Z,83.48
2023-07-24T03:11:57.569Z,83.59
2023-07-24T03:12:57.579Z,84.89
2023-07-24T03:13:57.667Z,83.89
2023-07-24T03:14:57.539Z,83.79
2023-07-24T03:15:57.581Z,85.10
2023-07-24T03:16:57.523Z,85.80
2023-07-24T03:17:58.345Z,85.80
2023-07-24T03:18:57.515Z,85.90
2023-07-24T03:19:57.476Z,85.40
2023-07-24T03:20:57.479Z,85.40
2023-07-24T03:21:57.461Z,84.19
2023-07-24T03:22:57.546Z,83.34
2023-07-24T03:23:57.438Z,82.44
2023-07-24T03:24:57.444Z,82.70
2023-07-24T03:25:57.418Z,82.80
2023-07-24T03:26:57.427Z,81.39
2023-07-24T03:27:57.410Z,79.88
2023-07-24T03:28:57.398Z,78.58
2023-07-24T03:29:57.377Z,76.73
2023-07-24T03:30:57.463Z,75.38
2023-07-24T03:31:57.922Z,75.68
2023-07-24T03:32:57.372Z,77.70
2023-07-24T03:33:57.346Z,78.30
2023-07-24T03:34:57.345Z,78.30
2023-07-24T03:35:57.321Z,78.50
2023-07-24T03:36:57.319Z,78.10
2023-07-24T03:37:57.305Z,78.60
2023-07-24T03:38:57.294Z,80.21
2023-07-24T03:39:57.325Z,80.45
2023-07-24T03:40:57.270Z,81.76
2023-07-24T03:41:57.272Z,79.44
2023-07-24T03:42:57.262Z,79.44
2023-07-24T03:43:57.237Z,79.48
2023-07-24T03:44:57.218Z,80.39
2023-07-24T03:45:57.213Z,80.99
2023-07-24T03:46:57.203Z,80.79
2023-07-24T03:47:57.211Z,80.69
2023-07-24T03:48:57.180Z,82.60
2023-07-24T03:49:57.871Z,82.70
2023-07-24T03:50:57.225Z,82.30
2023-07-24T03:51:57.149Z,81.84
2023-07-24T03:52:57.134Z,82.74
2023-07-24T03:53:57.127Z,83.34
2023-07-24T03:54:57.118Z,84.05
2023-07-24T03:55:57.102Z,81.93
2023-07-24T03:56:57.093Z,82.74
2023-07-24T03:57:57.079Z,81.84
2023-07-24T03:58:57.073Z,81.84
2023-07-24T03:59:57.063Z,84.25
2023-07-24T04:00:57.082Z,83.95
2023-07-24T04:01:57.041Z,84.25
2023-07-24T04:02:57.080Z,83.84
2023-07-24T04:03:57.030Z,83.54
2023-07-24T04:04:57.018Z,82.38
2023-07-24T04:05:56.986Z,83.69
2023-07-24T04:06:56.998Z,82.64
2023-07-24T04:07:56.967Z,83.25
2023-07-24T04:08:56.970Z,81.84
2023-07-24T04:09:56.953Z,81.53
2023-07-24T04:10:56.948Z,80.02
2023-07-24T04:11:56.933Z,79.79
2023-07-24T04:12:56.917Z,79.68
2023-07-24T04:13:56.901Z,79.94
2023-07-24T04:14:56.890Z,79.85
2023-07-24T04:15:56.886Z,79.85
2023-07-24T04:16:56.998Z,79.64
2023-07-24T04:17:56.880Z,79.64
2023-07-24T04:18:56.852Z,81.15
2023-07-24T04:19:56.834Z,81.35
2023-07-24T04:20:56.843Z,81.65
2023-07-24T04:21:56.838Z,81.05
2023-07-24T04:22:57.629Z,80.65
2023-07-24T04:23:56.798Z,81.05
2023-07-24T04:24:56.806Z,81.65
2023-07-24T04:25:56.777Z,80.61
2023-07-24T04:26:57.576Z,80.11
2023-07-24T04:27:57.589Z,80.61
2023-07-24T04:28:56.749Z,79.81
2023-07-24T04:29:56.738Z,80.41
2023-07-24T04:30:56.770Z,80.11
2023-07-24T04:31:56.702Z,79.50
2023-07-24T04:32:56.717Z,81.07
2023-07-24T04:33:56.686Z,80.98
2023-07-24T04:34:56.687Z,80.57
2023-07-24T04:35:56.693Z,79.17
2023-07-24T04:36:56.657Z,79.57
2023-07-24T04:37:56.638Z,79.87
2023-07-24T04:38:56.654Z,80.17
2023-07-24T04:39:56.619Z,80.57
2023-07-24T04:40:56.630Z,81.98
2023-07-24T04:41:56.600Z,80.37
2023-07-24T04:42:56.596Z,79.77
2023-07-24T04:43:56.581Z,77.86
2023-07-24T04:44:56.575Z,77.12
2023-07-24T04:45:56.576Z,77.32
2023-07-24T04:46:56.613Z,77.99
2023-07-24T04:47:56.597Z,79.05
2023-07-24T04:48:56.531Z,78.81
2023-07-24T04:49:56.725Z,79.02
2023-07-24T04:50:56.505Z,78.58
2023-07-24T04:51:56.491Z,79.18
2023-07-24T04:52:56.477Z,80.48
2023-07-24T04:53:56.472Z,79.64
2023-07-24T04:54:56.734Z,78.50
2023-07-24T04:55:56.450Z,78.47
2023-07-24T04:56:56.488Z,81.67
2023-07-24T04:57:56.423Z,82.51
2023-07-24T04:58:56.428Z,82.71
2023-07-24T04:59:56.402Z,83.95
2023-07-24T05:00:56.455Z,85.69
2023-07-24T05:01:56.444Z,87.24
2023-07-24T05:02:56.428Z,90.49
2023-07-24T05:03:56.386Z,90.78
2023-07-24T05:04:56.479Z,93.33
2023-07-24T05:05:56.399Z,94.59
2023-07-24T05:06:56.388Z,96.34
2023-07-24T05:07:56.340Z,97.75
2023-07-24T05:08:56.359Z,97.99
2023-07-24T05:09:56.430Z,98.80
2023-07-24T05:10:56.301Z,99.40
2023-07-24T05:11:56.278Z,99.30
2023-07-24T05:12:56.275Z,99.99
2023-07-24T05:13:56.251Z,99.99
2023-07-24T05:14:56.255Z,99.75
2023-07-24T05:15:56.237Z,99.99
2023-07-24T05:16:56.310Z,99.99
2023-07-24T05:17:56.259Z,99.99
2023-07-24T05:18:56.244Z,99.99
2023-07-24T05:19:56.208Z,99.99
2023-07-24T05:20:56.197Z,99.99
2023-07-24T05:21:56.173Z,99.99
2023-07-24T05:22:56.208Z,99.99
2023-07-24T05:23:56.172Z,99.99
2023-07-24T05:24:56.230Z,99.99
2023-07-24T05:25:56.142Z,99.99
2023-07-24T05:26:56.127Z,99.99
2023-07-24T05:27:56.945Z,99.99
2023-07-24T05:28:56.095Z,99.99
2023-07-24T05:29:56.097Z,99.99
2023-07-24T05:30:56.084Z,99.99
2023-07-24T05:31:56.147Z,99.99
2023-07-24T05:32:56.175Z,99.99
2023-07-24T05:33:56.071Z,99.99
2023-07-24T05:34:56.050Z,99.99
2023-07-24T05:35:56.037Z,99.99
2023-07-24T05:36:56.008Z,99.99
2023-07-24T05:37:56.007Z,99.99
2023-07-24T05:38:56.182Z,99.99
2023-07-24T05:39:55.989Z,99.99
2023-07-24T05:40:56.787Z,99.99
2023-07-24T05:41:55.986Z,99.99
2023-07-24T05:42:55.955Z,99.99
2023-07-24T05:43:55.934Z,99.99
2023-07-24T05:44:55.959Z,99.70
2023-07-24T05:45:55.967Z,99.99
2023-07-24T05:46:55.915Z,99.99
2023-07-24T05:47:55.983Z,99.99
2023-07-24T05:48:55.881Z,99.99
2023-07-24T05:49:55.873Z,99.99
2023-07-24T05:50:55.863Z,99.99
2023-07-24T05:51:55.849Z,99.99
2023-07-24T05:52:55.831Z,99.99
2023-07-24T05:53:55.819Z,99.99
2023-07-24T05:54:55.827Z,99.99
2023-07-24T05:55:55.819Z,99.99
2023-07-24T05:56:55.795Z,99.99
2023-07-24T05:57:55.807Z,99.99
2023-07-24T05:58:55.786Z,99.99
2023-07-24T05:59:55.765Z,99.99
2023-07-24T06:00:55.757Z,99.99
2023-07-24T06:01:55.801Z,99.99
2023-07-24T06:02:57.249Z,99.99
2023-07-24T06:03:55.791Z,99.99
2023-07-24T06:04:55.743Z,99.99
2023-07-24T06:05:55.713Z,99.99
2023-07-24T06:06:55.706Z,99.99
2023-07-24T06:07:55.705Z,99.99
2023-07-24T06:08:55.663Z,99.99
2023-07-24T06:09:55.648Z,99.99
2023-07-24T06:10:55.762Z,99.99
2023-07-24T06:11:55.626Z,99.80
2023-07-24T06:12:55.641Z,98.90
2023-07-24T06:13:55.678Z,99.00
2023-07-24T06:14:55.600Z,99.00
2023-07-24T06:15:55.648Z,98.85
2023-07-24T06:16:55.586Z,99.35
2023-07-24T06:17:55.634Z,98.85
2023-07-24T06:18:55.559Z,99.35
2023-07-24T06:19:55.549Z,99.71
2023-07-24T06:20:55.560Z,99.81
2023-07-24T06:21:55.520Z,99.11
2023-07-24T06:22:55.516Z,99.71
2023-07-24T06:23:55.500Z,98.71
2023-07-24T06:24:55.535Z,99.31
2023-07-24T06:25:55.487Z,99.99
2023-07-24T06:26:55.477Z,99.99
2023-07-24T06:27:55.456Z,99.99
2023-07-24T06:28:55.458Z,99.26
2023-07-24T06:29:56.091Z,99.15
2023-07-24T06:30:56.427Z,99.26
2023-07-24T06:31:55.417Z,99.99
2023-07-24T06:32:55.491Z,99.51
2023-07-24T06:33:55.401Z,98.50
2023-07-24T06:34:56.736Z,98.30
2023-07-24T06:35:55.374Z,98.50
2023-07-24T06:37:01.221Z,98.36
2023-07-24T06:37:56.366Z,97.05
2023-07-24T06:38:55.343Z,96.85
2023-07-24T06:39:55.329Z,96.65
2023-07-24T06:40:55.324Z,97.11
2023-07-24T06:41:55.330Z,96.00
2023-07-24T06:42:55.299Z,95.40
2023-07-24T06:43:55.285Z,95.20
2023-07-24T06:44:55.284Z,94.39
2023-07-24T06:45:55.307Z,94.79
2023-07-24T06:46:55.257Z,96.10
2023-07-24T06:47:55.294Z,96.06
2023-07-24T06:48:55.236Z,95.55
2023-07-24T06:49:55.228Z,95.65
2023-07-24T06:50:55.497Z,95.15
2023-07-24T06:51:55.209Z,95.15
2023-07-24T06:52:55.187Z,95.55
2023-07-24T06:53:55.197Z,93.89
2023-07-24T06:54:55.173Z,95.45
2023-07-24T06:55:55.182Z,95.65
2023-07-24T06:56:55.157Z,94.85
2023-07-24T06:57:55.146Z,94.95
2023-07-24T06:58:55.128Z,97.41
2023-07-24T06:59:55.631Z,97.50
2023-07-24T07:00:55.248Z,96.20
2023-07-24T07:01:55.104Z,96.00
2023-07-24T07:02:55.148Z,95.20
2023-07-24T07:03:55.106Z,95.36
2023-07-24T07:04:55.887Z,95.55
2023-07-24T07:05:55.059Z,96.86
2023-07-24T07:06:55.044Z,96.06
2023-07-24T07:07:55.036Z,95.45
2023-07-24T07:08:55.031Z,95.71
2023-07-24T07:09:55.012Z,95.31
2023-07-24T07:10:54.998Z,93.20
2023-07-24T07:11:55.000Z,94.31
2023-07-24T07:12:54.997Z,93.80
2023-07-24T07:13:54.987Z,95.10
2023-07-24T07:14:54.956Z,95.61
2023-07-24T07:15:55.005Z,95.51
2023-07-24T07:16:54.934Z,95.31
2023-07-24T07:17:54.950Z,95.01
2023-07-24T07:18:54.917Z,94.85
2023-07-24T07:19:54.913Z,94.75
2023-07-24T07:20:54.905Z,96.26
2023-07-24T07:21:54.880Z,95.65
2023-07-24T07:22:54.869Z,95.86
2023-07-24T07:23:54.872Z,95.86
2023-07-24T07:24:54.931Z,94.35
2023-07-24T07:25:54.843Z,93.15
2023-07-24T07:26:54.883Z,92.74
2023-07-24T07:27:55.630Z,93.99
2023-07-24T07:28:54.808Z,95.20
2023-07-24T07:29:54.819Z,95.00
2023-07-24T07:30:54.829Z,94.39
2023-07-24T07:31:54.774Z,94.70
2023-07-24T07:32:54.831Z,94.49
2023-07-24T07:33:54.763Z,94.25
2023-07-24T07:34:54.747Z,94.75
2023-07-24T07:35:55.060Z,95.55
2023-07-24T07:36:55.051Z,94.35
2023-07-24T07:37:54.708Z,95.25
2023-07-24T07:38:54.688Z,95.75
2023-07-24T07:39:54.704Z,95.05
2023-07-24T07:40:55.483Z,94.85
2023-07-24T07:42:04.367Z,94.25
2023-07-24T07:42:55.661Z,94.55
2023-07-24T07:43:54.649Z,95.31
2023-07-24T07:44:54.632Z,95.71
2023-07-24T07:45:54.625Z,96.21
2023-07-24T07:46:54.618Z,96.41
2023-07-24T07:47:54.710Z,96.71
2023-07-24T07:48:54.601Z,95.91
2023-07-24T07:49:55.393Z,95.81
2023-07-24T07:50:54.578Z,96.11
2023-07-24T07:51:54.571Z,96.31
2023-07-24T07:52:54.541Z,95.10
2023-07-24T07:53:54.702Z,95.61
2023-07-24T07:54:54.799Z,95.10
2023-07-24T07:55:54.525Z,95.21
2023-07-24T07:56:54.498Z,95.61
2023-07-24T07:57:54.499Z,96.21
2023-07-24T07:58:54.484Z,96.01
2023-07-24T07:59:54.486Z,96.17
2023-07-24T08:00:54.488Z,95.16
2023-07-24T08:01:54.461Z,94.56
2023-07-24T08:02:54.493Z,95.66
2023-07-24T08:03:54.458Z,96.26
2023-07-24T08:04:54.410Z,97.47
2023-07-24T08:05:54.416Z,97.77
2023-07-24T08:06:54.407Z,96.36
2023-07-24T08:07:54.385Z,96.47
2023-07-24T08:08:54.422Z,95.72
2023-07-24T08:09:54.367Z,96.12
2023-07-24T08:10:54.352Z,96.42
2023-07-24T08:11:54.339Z,95.97
2023-07-24T08:12:54.448Z,95.01
2023-07-24T08:13:54.316Z,95.47
2023-07-24T08:14:54.299Z,95.37
2023-07-24T08:15:54.300Z,94.27
2023-07-24T08:16:54.571Z,95.37
2023-07-24T08:17:54.420Z,95.47
2023-07-24T08:18:56.116Z,95.73
2023-07-24T08:19:54.262Z,94.62
2023-07-24T08:20:54.246Z,93.62
2023-07-24T08:21:55.050Z,92.86
2023-07-24T08:22:54.219Z,94.73
2023-07-24T08:23:54.220Z,94.32
2023-07-24T08:24:57.122Z,92.32
2023-07-24T08:25:54.190Z,93.08
2023-07-24T08:26:54.972Z,92.58
2023-07-24T08:28:04.624Z,94.13
2023-07-24T08:28:55.151Z,92.63
2023-07-24T08:29:54.170Z,92.24
2023-07-24T08:30:54.274Z,90.13
2023-07-24T08:31:54.238Z,91.83
2023-07-24T08:32:54.131Z,91.74
2023-07-24T08:33:54.099Z,92.43
2023-07-24T08:34:54.082Z,92.09
2023-07-24T08:35:54.886Z,90.29
2023-07-24T08:36:54.057Z,89.29
2023-07-24T08:37:54.087Z,89.59
2023-07-24T08:38:54.033Z,89.75
2023-07-24T08:39:54.033Z,90.50
2023-07-24T08:40:54.015Z,87.25
2023-07-24T08:41:54.025Z,90.70
2023-07-24T08:42:54.018Z,88.51
2023-07-24T08:43:53.991Z,89.47
2023-07-24T08:44:53.980Z,87.87
2023-07-24T08:45:53.975Z,87.32
2023-07-24T08:46:53.985Z,86.17
2023-07-24T08:47:53.993Z,88.06
2023-07-24T08:48:53.931Z,87.46
2023-07-24T08:49:53.927Z,87.32
2023-07-24T08:50:53.919Z,87.38
2023-07-24T08:51:53.921Z,87.88
2023-07-24T08:52:53.906Z,88.34
2023-07-24T08:53:53.892Z,82.79
2023-07-24T08:54:53.884Z,86.04
2023-07-24T08:55:53.890Z,87.24
2023-07-24T08:56:53.844Z,86.44
2023-07-24T08:57:53.846Z,84.05
2023-07-24T08:58:53.837Z,85.05
2023-07-24T08:59:53.824Z,82.65
2023-07-24T09:00:53.831Z,84.95
2023-07-24T09:01:53.796Z,84.45
2023-07-24T09:02:53.864Z,85.80
2023-07-24T09:03:54.640Z,83.05
2023-07-24T09:04:53.795Z,82.06
2023-07-24T09:05:53.756Z,83.55
2023-07-24T09:06:53.741Z,82.65
2023-07-24T09:07:53.961Z,82.45
2023-07-24T09:08:53.718Z,85.30
2023-07-24T09:09:53.722Z,83.47
2023-07-24T09:10:53.729Z,81.88
2023-07-24T09:11:53.700Z,81.28
2023-07-24T09:12:53.681Z,81.94
2023-07-24T09:13:55.454Z,81.74
2023-07-24T09:14:53.654Z,78.55
2023-07-24T09:15:53.656Z,78.12
2023-07-24T09:16:53.694Z,80.54
2023-07-24T09:17:54.626Z,81.40
2023-07-24T09:19:54.398Z,81.30
2023-07-24T09:20:53.812Z,80.21
2023-07-24T09:21:53.584Z,80.90
2023-07-24T09:23:54.566Z,81.74
2023-07-24T09:24:53.621Z,81.54
2023-07-24T09:25:53.544Z,82.84
2023-07-24T09:26:58.642Z,81.64
2023-07-24T09:27:54.530Z,82.00
2023-07-24T09:28:54.316Z,80.57
2023-07-24T09:29:53.503Z,78.28
2023-07-24T09:30:53.552Z,80.27
2023-07-24T09:31:53.489Z,80.43
2023-07-24T09:32:53.529Z,79.24
2023-07-24T09:33:53.460Z,81.32
2023-07-24T09:34:53.460Z,78.20
2023-07-24T09:35:53.449Z,77.25
2023-07-24T09:36:53.429Z,78.44
2023-07-24T09:37:53.420Z,77.88
2023-07-24T09:38:54.408Z,82.06
2023-07-24T09:39:54.052Z,79.17
2023-07-24T09:40:53.379Z,79.97
2023-07-24T09:41:53.371Z,79.37
2023-07-24T09:43:54.372Z,77.78
2023-07-24T09:44:53.337Z,78.24
2023-07-24T09:45:53.371Z,76.91
2023-07-24T09:47:58.844Z,78.50
2023-07-24T09:49:53.352Z,79.06
2023-07-24T09:50:53.282Z,78.53
2023-07-24T09:51:53.270Z,77.73
2023-07-24T09:52:53.245Z,76.14
2023-07-24T09:53:53.268Z,76.50
2023-07-24T09:54:53.236Z,76.31
2023-07-24T09:55:53.242Z,74.12
2023-07-24T09:57:00.519Z,73.10
2023-07-24T09:57:54.229Z,74.12
2023-07-24T09:58:53.992Z,74.12
2023-07-24T09:59:53.181Z,74.91
2023-07-24T10:00:53.185Z,74.29
2023-07-24T10:01:53.189Z,73.59
2023-07-24T10:02:53.188Z,74.32
2023-07-24T10:03:53.146Z,75.01
2023-07-24T10:04:53.188Z,72.97
2023-07-24T10:05:53.136Z,74.89
2023-07-24T10:06:53.108Z,75.09
2023-07-24T10:07:53.122Z,76.48
2023-07-24T10:08:53.087Z,77.11
2023-07-24T10:09:53.086Z,76.61
2023-07-24T10:10:53.076Z,75.02
2023-07-24T10:11:53.062Z,75.59
2023-07-24T10:12:53.037Z,75.48
2023-07-24T10:13:53.042Z,76.08
2023-07-24T10:14:53.024Z,75.09
2023-07-24T10:15:53.073Z,76.02
2023-07-24T10:16:52.986Z,75.65
2023-07-24T10:17:53.023Z,75.76
2023-07-24T10:18:52.981Z,75.89
2023-07-24T10:19:52.978Z,76.59
2023-07-24T10:20:52.958Z,77.62
2023-07-24T10:21:52.947Z,77.82
2023-07-24T10:22:52.921Z,76.82
2023-07-24T10:23:52.928Z,76.82
2023-07-24T10:24:52.980Z,76.92
2023-07-24T10:25:53.578Z,77.86
2023-07-24T10:26:52.888Z,78.16
2023-07-24T10:27:52.882Z,78.95
2023-07-24T10:28:52.862Z,79.35
2023-07-24T10:29:52.867Z,79.31
2023-07-24T10:30:52.869Z,78.42
2023-07-24T10:31:52.935Z,78.08
2023-07-24T10:32:55.638Z,77.78
2023-07-24T10:33:52.932Z,76.98
2023-07-24T10:34:52.816Z,77.28
2023-07-24T10:35:52.795Z,78.38
2023-07-24T10:36:52.850Z,77.92
2023-07-24T10:37:52.777Z,79.17
2023-07-24T10:38:52.775Z,79.08
2023-07-24T10:39:52.905Z,79.27
2023-07-24T10:40:52.742Z,78.04
2023-07-24T10:41:52.755Z,78.14
2023-07-24T10:42:52.755Z,77.45
2023-07-24T10:43:52.721Z,77.41
2023-07-24T10:44:52.699Z,77.01
2023-07-24T10:45:52.751Z,76.81
2023-07-24T10:46:52.696Z,75.42
2023-07-24T10:47:52.684Z,76.51
2023-07-24T10:48:52.785Z,76.75
2023-07-24T10:49:52.654Z,74.76
2023-07-24T10:50:54.316Z,74.99
2023-07-24T10:51:52.643Z,74.43
2023-07-24T10:52:52.634Z,75.53
2023-07-24T10:53:52.615Z,76.03
2023-07-24T10:54:52.598Z,76.32
2023-07-24T10:55:52.710Z,77.46
2023-07-24T10:56:52.582Z,76.56
2023-07-24T10:57:52.603Z,76.46
2023-07-24T10:58:52.564Z,78.39
2023-07-24T10:59:52.547Z,77.09
2023-07-24T11:00:52.552Z,78.53
2023-07-24T11:01:52.570Z,78.63
2023-07-24T11:02:52.548Z,79.63
2023-07-24T11:03:52.502Z,79.82
2023-07-24T11:04:52.610Z,79.82
2023-07-24T11:05:52.488Z,80.02
2023-07-24T11:06:52.478Z,80.32
2023-07-24T11:07:52.458Z,81.52
2023-07-24T11:08:52.459Z,80.48
2023-07-24T11:09:52.430Z,79.88
2023-07-24T11:10:52.425Z,79.49
2023-07-24T11:11:52.429Z,80.58
2023-07-24T11:12:52.428Z,79.25
2023-07-24T11:13:52.407Z,79.21
2023-07-24T11:14:52.395Z,79.01
2023-07-24T11:15:52.416Z,78.18
2023-07-24T11:16:52.379Z,77.58
2023-07-24T11:17:52.409Z,77.55
2023-07-24T11:18:54.989Z,77.05
2023-07-24T11:19:52.323Z,76.72
2023-07-24T11:20:52.315Z,75.22
2023-07-24T11:21:52.312Z,75.82
2023-07-24T11:22:52.314Z,74.93
2023-07-24T11:23:52.296Z,74.73
2023-07-24T11:24:52.328Z,74.93
2023-07-24T11:25:52.264Z,73.14
2023-07-24T11:26:52.264Z,73.73
2023-07-24T11:27:52.256Z,74.29
2023-07-24T11:28:52.232Z,72.14
2023-07-24T11:29:52.225Z,73.03
2023-07-24T11:30:52.248Z,74.52
2023-07-24T11:31:52.205Z,75.12
2023-07-24T11:32:52.234Z,74.03
2023-07-24T11:33:52.198Z,72.74
2023-07-24T11:34:52.184Z,71.15
2023-07-24T11:35:52.176Z,72.34
2023-07-24T11:36:52.149Z,73.83
2023-07-24T11:37:52.132Z,71.64
2023-07-24T11:38:52.132Z,71.94
2023-07-24T11:39:52.109Z,71.75
2023-07-24T11:40:52.121Z,72.97
2023-07-24T11:41:52.095Z,73.21
2023-07-24T11:42:52.083Z,74.87
2023-07-24T11:43:52.127Z,75.84
2023-07-24T11:44:52.074Z,77.40
2023-07-24T11:45:52.048Z,79.14
2023-07-24T11:46:52.068Z,79.38
2023-07-24T11:47:52.049Z,80.41
2023-07-24T11:48:52.024Z,80.32
2023-07-24T11:49:52.009Z,79.78
2023-07-24T11:50:52.018Z,80.18
2023-07-24T11:51:52.007Z,80.98
2023-07-24T11:52:51.986Z,80.04
2023-07-24T11:53:51.968Z,79.00
2023-07-24T11:54:51.961Z,78.90
2023-07-24T11:55:51.943Z,78.20
2023-07-24T11:56:51.951Z,77.21
2023-07-24T11:57:51.919Z,77.31
2023-07-24T11:58:51.927Z,78.30
2023-07-24T11:59:51.911Z,77.31
2023-07-24T12:00:51.902Z,76.41
2023-07-24T12:01:51.874Z,76.01
2023-07-24T12:02:52.052Z,75.71
2023-07-24T12:03:51.931Z,77.31
2023-07-24T12:04:51.852Z,75.67
2023-07-24T12:05:51.858Z,75.51
2023-07-24T12:06:51.827Z,75.37
2023-07-24T12:07:51.828Z,76.11
2023-07-24T12:08:51.826Z,78.20
2023-07-24T12:09:51.792Z,77.40
2023-07-24T12:10:51.835Z,78.00
2023-07-24T12:11:51.772Z,78.47
2023-07-24T12:12:51.766Z,77.57
2023-07-24T12:13:51.834Z,80.22
2023-07-24T12:14:53.114Z,78.19
2023-07-24T12:15:51.742Z,78.09
2023-07-24T12:16:51.727Z,77.50
2023-07-24T12:17:51.851Z,76.30
2023-07-24T12:18:51.726Z,76.06
2023-07-24T12:19:51.689Z,80.35
2023-07-24T12:20:51.695Z,76.26
2023-07-24T12:21:52.488Z,74.04
2023-07-24T12:22:51.691Z,75.49
2023-07-24T12:23:51.656Z,78.74
2023-07-24T12:24:51.660Z,77.97
2023-07-24T12:25:52.053Z,74.22
2023-07-24T12:26:51.619Z,70.51
2023-07-24T12:27:51.613Z,74.62
2023-07-24T12:28:51.600Z,70.88
2023-07-24T12:29:51.605Z,78.03
2023-07-24T12:30:51.589Z,72.97
2023-07-24T12:31:51.561Z,72.67
2023-07-24T12:32:51.585Z,71.88
2023-07-24T12:33:51.553Z,70.72
2023-07-24T12:34:51.540Z,70.45
2023-07-24T12:35:51.519Z,69.76
2023-07-24T12:36:51.523Z,69.26
2023-07-24T12:37:51.506Z,70.29
2023-07-24T12:38:51.495Z,71.97
2023-07-24T12:39:51.488Z,76.44
2023-07-24T12:40:51.475Z,70.39
2023-07-24T12:41:51.461Z,71.31
2023-07-24T12:42:51.483Z,71.97
2023-07-24T12:43:51.440Z,72.53
2023-07-24T12:44:51.429Z,73.49
2023-07-24T12:45:51.423Z,71.28
2023-07-24T12:46:51.461Z,70.35
2023-07-24T12:47:51.454Z,67.97
2023-07-24T12:48:51.691Z,67.64
2023-07-24T12:49:51.375Z,69.49
2023-07-24T12:50:51.384Z,69.65
2023-07-24T12:51:51.350Z,66.19
2023-07-24T12:52:51.541Z,68.66
2023-07-24T12:54:00.553Z,65.56
2023-07-24T12:55:00.954Z,64.74
2023-07-24T12:55:52.316Z,71.17
2023-07-24T12:56:51.353Z,64.91